Time;durP1;ratioP1;P1;durP2;ratioP2;P2;SDS_P1;SDS_P2;PMS_P1;PMS_P2;Temp;Humidity;BMP_temperature;BMP_pressure;BME280_temperature;BME280_humidity;BME280_pressure;Samples;Min_cycle;Max_cycle;Signal;HPM_P1;HPM_P2
2023/06/28 00:01:41;;;;;;;2.35;1.75;;;;;;;23.69;66.13;99302.22;5095517;28;20027;-80
2023/06/28 00:04:06;;;;;;;2.35;1.63;;;;;;;23.65;65.81;99294.50;5091964;28;20051;-80
2023/06/28 00:06:32;;;;;;;1.27;1.17;;;;;;;23.59;66.94;99307.47;5097671;28;20485;-81
2023/06/28 00:08:58;;;;;;;2.45;1.60;;;;;;;23.40;67.53;99297.22;5094715;28;20057;-80
2023/06/28 00:11:25;;;;;;;2.72;1.42;;;;;;;23.31;67.56;99278.19;5075444;28;20028;-81
2023/06/28 00:13:51;;;;;;;3.03;1.35;;;;;;;23.30;68.24;99298.88;5093730;28;20032;-80
2023/06/28 00:16:17;;;;;;;2.33;1.42;;;;;;;23.20;68.67;99281.69;5097375;28;20113;-80
2023/06/28 00:18:45;;;;;;;4.25;2.35;;;;;;;23.20;68.77;99298.72;5110658;28;20035;-80
2023/06/28 00:21:14;;;;;;;3.20;1.73;;;;;;;23.03;68.76;99254.19;5100016;28;20093;-80
2023/06/28 00:23:41;;;;;;;2.22;1.52;;;;;;;23.16;68.82;99274.84;5098084;28;20028;-80
2023/06/28 00:26:06;;;;;;;2.08;1.25;;;;;;;23.10;68.46;99264.53;5091182;28;20511;-80
2023/06/28 00:28:32;;;;;;;3.40;1.23;;;;;;;23.30;67.86;99293.50;5091710;28;20032;-80
2023/06/28 00:30:57;;;;;;;3.28;1.90;;;;;;;23.35;67.75;99283.22;5090802;28;20032;-80
2023/06/28 00:33:23;;;;;;;1.60;0.93;;;;;;;23.17;68.48;99292.66;5106891;28;20108;-82
2023/06/28 00:35:48;;;;;;;3.15;1.63;;;;;;;22.97;69.27;99289.59;5111389;28;20028;-80
2023/06/28 00:38:14;;;;;;;4.57;1.88;;;;;;;22.82;69.68;99256.59;5111257;28;20041;-80
2023/06/28 00:40:39;;;;;;;4.28;1.92;;;;;;;22.94;69.51;99264.75;5093621;28;20047;-80
2023/06/28 00:43:05;;;;;;;2.70;1.90;;;;;;;23.09;68.97;99274.41;5091558;28;20425;-80
2023/06/28 00:45:30;;;;;;;2.88;1.30;;;;;;;22.82;69.61;99250.38;5090473;28;20499;-80
2023/06/28 00:47:56;;;;;;;3.35;2.13;;;;;;;23.02;68.04;99282.03;5090901;28;20471;-80
2023/06/28 00:50:21;;;;;;;1.85;1.45;;;;;;;22.74;69.24;99250.94;5090261;28;20398;-80
2023/06/28 00:52:47;;;;;;;1.73;1.25;;;;;;;22.71;69.93;99278.03;5091698;28;20481;-80
2023/06/28 00:55:13;;;;;;;2.80;1.75;;;;;;;22.46;70.69;99250.25;5100196;28;20028;-79
2023/06/28 00:57:39;;;;;;;2.60;1.73;;;;;;;22.65;70.50;99271.28;5100210;28;20055;-80
2023/06/28 01:00:11;;;;;;;4.97;2.10;;;;;;;22.65;69.85;99279.34;5110655;28;20074;-80
2023/06/28 01:02:41;;;;;;;2.25;1.67;;;;;;;22.66;69.84;99269.44;5110680;28;20028;-80
2023/06/28 01:05:08;;;;;;;3.40;2.17;;;;;;;22.58;69.21;99248.47;5091974;28;20099;-80
2023/06/28 01:07:36;;;;;;;2.58;0.85;;;;;;;22.66;69.47;99267.63;5108841;28;20084;-80
2023/06/28 01:10:04;;;;;;;2.25;1.60;;;;;;;22.46;68.94;99226.06;5101673;28;20047;-80
2023/06/28 01:12:30;;;;;;;1.67;1.25;;;;;;;22.45;67.66;99231.53;5072202;28;20417;-81
2023/06/28 01:14:55;;;;;;;1.92;1.13;;;;;;;22.42;66.72;99226.38;5090365;28;20094;-80
2023/06/28 01:17:21;;;;;;;4.03;2.03;;;;;;;22.70;66.54;99247.59;5072099;28;20036;-80
2023/06/28 01:19:46;;;;;;;1.98;1.52;;;;;;;22.65;65.77;99244.38;5099572;28;20566;-80
2023/06/28 01:22:13;;;;;;;1.77;1.48;;;;;;;22.67;65.30;99261.25;5107780;28;20088;-80
2023/06/28 01:24:40;;;;;;;2.90;1.25;;;;;;;22.54;65.08;99238.94;5097666;28;20117;-80
2023/06/28 01:27:09;;;;;;;2.92;1.77;;;;;;;22.56;64.78;99269.25;5114657;28;20026;-80
2023/06/28 01:29:36;;;;;;;2.47;1.50;;;;;;;22.56;64.60;99249.59;5077422;28;20042;-80
2023/06/28 01:32:03;;;;;;;3.65;1.30;;;;;;;22.44;64.77;99238.72;5075695;28;20494;-81
2023/06/28 01:34:29;;;;;;;3.83;1.50;;;;;;;22.63;64.88;99261.59;5093928;28;20498;-80
2023/06/28 01:36:58;;;;;;;2.88;1.67;;;;;;;22.42;64.94;99229.06;5109650;28;20092;-80
2023/06/28 01:39:25;;;;;;;2.17;1.20;;;;;;;22.29;64.46;99246.03;5114825;28;20023;-81
2023/06/28 01:41:53;;;;;;;3.33;1.80;;;;;;;22.38;64.41;99247.22;5114249;28;20126;-81
2023/06/28 01:44:18;;;;;;;1.75;1.13;;;;;;;22.13;64.08;99227.44;5114487;28;20044;-80
2023/06/28 01:46:44;;;;;;;3.22;0.90;;;;;;;22.41;63.59;99257.75;5112673;28;20036;-80
2023/06/28 01:49:10;;;;;;;4.03;2.13;;;;;;;22.46;63.74;99265.47;5113627;28;20032;-81
2023/06/28 01:51:36;;;;;;;3.03;1.33;;;;;;;22.48;62.97;99253.66;5113265;28;20108;-80
2023/06/28 01:54:03;;;;;;;4.13;1.65;;;;;;;22.57;63.33;99281.72;5107473;28;20107;-80
2023/06/28 01:56:29;;;;;;;3.33;1.70;;;;;;;22.55;63.55;99280.94;5111493;28;20035;-80
2023/06/28 01:58:54;;;;;;;2.65;1.25;;;;;;;22.42;64.72;99280.13;5114512;28;20488;-79
2023/06/28 02:01:20;;;;;;;3.05;1.33;;;;;;;22.42;65.76;99290.88;5114313;28;20036;-80
2023/06/28 02:03:45;;;;;;;2.95;1.80;;;;;;;21.94;67.39;99268.16;5113795;28;20035;-80
2023/06/28 02:06:13;;;;;;;8.27;2.15;;;;;;;21.86;67.44;99232.03;5112380;28;20028;-80
2023/06/28 02:08:38;;;;;;;2.53;1.65;;;;;;;22.27;67.59;99290.09;5097598;28;20052;-81
2023/06/28 02:11:04;;;;;;;3.17;1.85;;;;;;;22.29;67.87;99297.06;5093488;28;20074;-81
2023/06/28 02:13:29;;;;;;;4.13;1.95;;;;;;;22.27;67.87;99271.28;5093912;28;20019;-79
2023/06/28 02:15:55;;;;;;;14.07;2.70;;;;;;;22.36;68.30;99297.53;5094517;28;20042;-80
2023/06/28 02:18:24;;;;;;;4.25;3.10;;;;;;;22.35;68.95;99307.44;5093352;28;20032;-80
2023/06/28 02:20:51;;;;;;;1.30;1.20;;;;;;;22.15;69.20;99262.25;5093277;28;20032;-80
2023/06/28 02:23:16;;;;;;;3.30;2.40;;;;;;;22.07;69.76;99259.25;5093602;28;20031;-81
2023/06/28 02:25:42;;;;;;;5.03;3.00;;;;;;;22.31;69.82;99286.25;5094724;28;20028;-80
2023/06/28 02:28:07;;;;;;;3.70;2.13;;;;;;;22.28;70.79;99294.50;5075699;28;20446;-80
2023/06/28 02:30:33;;;;;;;4.22;2.78;;;;;;;22.03;71.46;99274.72;5092723;28;20031;-81
2023/06/28 02:32:58;;;;;;;3.45;2.10;;;;;;;22.04;71.95;99280.94;5092298;28;20024;-80
2023/06/28 02:35:24;;;;;;;4.63;2.33;;;;;;;21.97;72.37;99284.03;5092671;28;20406;-81
2023/06/28 02:37:49;;;;;;;5.45;2.00;;;;;;;21.63;72.50;99223.75;5094144;28;20417;-80
2023/06/28 02:40:14;;;;;;;4.18;2.03;;;;;;;21.79;72.41;99253.94;5092938;28;20420;-80
2023/06/28 02:42:40;;;;;;;8.82;3.72;;;;;;;21.92;72.35;99283.50;5092683;28;20090;-80
2023/06/28 02:45:06;;;;;;;3.03;1.83;;;;;;;21.81;71.79;99291.41;5092805;28;20083;-80
2023/06/28 02:47:32;;;;;;;2.95;1.70;;;;;;;21.59;71.95;99281.28;5092592;28;20024;-80
2023/06/28 02:49:57;;;;;;;4.28;1.73;;;;;;;21.32;72.70;99274.09;5093707;28;20032;-79
2023/06/28 02:52:23;;;;;;;3.25;2.30;;;;;;;21.50;72.55;99290.81;5092617;28;20066;-80
2023/06/28 02:54:48;;;;;;;3.45;1.92;;;;;;;21.25;73.48;99278.97;5092503;28;20032;-80
2023/06/28 02:57:14;;;;;;;3.45;1.30;;;;;;;21.06;74.38;99270.44;5092124;28;20644;-80
2023/06/28 02:59:39;;;;;;;3.03;1.85;;;;;;;21.24;74.77;99298.75;5093319;28;20039;-80
2023/06/28 03:02:05;;;;;;;5.03;1.75;;;;;;;21.23;74.86;99302.38;5073965;28;20044;-81
2023/06/28 03:04:32;;;;;;;3.25;1.77;;;;;;;21.11;74.54;99281.72;5092024;28;20028;-80
2023/06/28 03:06:58;;;;;;;2.10;1.75;;;;;;;21.21;74.33;99306.97;5092500;28;20028;-80
2023/06/28 03:09:24;;;;;;;5.38;2.53;;;;;;;20.78;74.50;99253.47;5093262;28;20103;-81
2023/06/28 03:11:50;;;;;;;4.57;2.10;;;;;;;20.97;75.23;99295.16;5097549;27;20127;-81
2023/06/28 03:14:15;;;;;;;3.60;1.85;;;;;;;21.08;75.08;99309.56;5092278;28;20032;-81
2023/06/28 03:16:41;;;;;;;2.92;2.05;;;;;;;20.81;75.09;99258.63;5109784;28;20035;-81
2023/06/28 03:19:07;;;;;;;3.75;1.98;;;;;;;21.08;75.06;99296.16;5111176;28;20020;-82
2023/06/28 03:21:33;;;;;;;2.03;1.55;;;;;;;21.17;74.81;99307.28;5110329;28;20038;-79
2023/06/28 03:23:58;;;;;;;2.03;1.13;;;;;;;21.03;74.84;99276.00;5112036;28;20023;-80
2023/06/28 03:26:24;;;;;;;3.03;1.73;;;;;;;21.06;75.41;99282.00;5111853;28;20020;-79
2023/06/28 03:28:49;;;;;;;3.55;1.90;;;;;;;21.39;73.99;99314.78;5112366;28;20510;-80
2023/06/28 03:31:15;;;;;;;3.42;1.92;;;;;;;21.25;74.32;99313.84;5104520;28;20410;-80
2023/06/28 03:33:40;;;;;;;2.95;2.05;;;;;;;21.28;74.10;99299.38;5091807;28;20031;-80
2023/06/28 03:36:06;;;;;;;2.63;1.92;;;;;;;21.39;73.84;99299.53;5091716;28;20032;-81
2023/06/28 03:38:31;;;;;;;5.43;1.90;;;;;;;21.62;74.02;99326.69;5091729;28;20095;-80
2023/06/28 03:40:57;;;;;;;3.22;1.85;;;;;;;21.46;73.75;99300.00;5091300;28;20032;-80
2023/06/28 03:43:22;;;;;;;3.42;2.25;;;;;;;21.59;74.19;99333.13;5092084;28;20028;-80
2023/06/28 03:45:48;;;;;;;4.05;2.67;;;;;;;21.76;73.92;99329.31;5091452;28;20135;-80
2023/06/28 03:48:14;;;;;;;4.18;2.28;;;;;;;21.69;73.77;99308.34;5091858;28;20158;-79
2023/06/28 03:50:40;;;;;;;3.97;2.25;;;;;;;21.72;73.73;99287.56;5091655;28;20020;-80
2023/06/28 03:53:05;;;;;;;5.28;2.40;;;;;;;21.84;73.87;99310.00;5092307;28;20035;-79
2023/06/28 03:55:30;;;;;;;3.47;2.30;;;;;;;22.06;73.26;99328.22;5092423;28;20138;-80
2023/06/28 03:57:56;;;;;;;2.65;1.92;;;;;;;22.21;72.69;99341.53;5111447;28;20024;-82
2023/06/28 04:00:21;;;;;;;4.63;1.92;;;;;;;22.18;72.38;99330.06;5106799;28;20036;-82
2023/06/28 04:02:47;;;;;;;2.85;2.08;;;;;;;22.20;72.01;99305.78;5089072;28;20527;-82
2023/06/28 04:05:13;;;;;;;4.75;2.20;;;;;;;22.48;71.60;99333.44;5111265;28;20104;-82
2023/06/28 04:07:38;;;;;;;7.13;2.75;;;;;;;22.50;71.20;99292.03;5105015;28;20032;-82
2023/06/28 04:10:04;;;;;;;3.67;2.35;;;;;;;22.74;70.68;99326.22;5091141;28;20032;-81
2023/06/28 04:12:30;;;;;;;6.07;2.20;;;;;;;22.95;69.98;99333.69;5110219;28;20039;-81
2023/06/28 04:14:55;;;;;;;5.45;2.35;;;;;;;22.97;71.02;99340.69;5111119;28;20023;-81
2023/06/28 04:17:20;;;;;;;4.45;1.92;;;;;;;22.54;71.04;99314.19;5108813;28;20042;-81
2023/06/28 04:19:46;;;;;;;6.00;2.17;;;;;;;22.60;70.99;99310.19;5111176;28;20111;-81
2023/06/28 04:22:11;;;;;;;4.28;2.92;;;;;;;22.77;70.44;99330.50;5099297;27;20718;-81
2023/06/28 04:24:37;;;;;;;6.25;2.88;;;;;;;22.74;69.09;99333.41;5098548;28;20024;-81
2023/06/28 04:27:03;;;;;;;4.43;2.80;;;;;;;22.70;69.13;99312.13;5104553;28;20100;-80
2023/06/28 04:29:28;;;;;;;6.30;2.53;;;;;;;22.87;69.31;99328.88;5091418;28;20039;-80
2023/06/28 04:31:58;;;;;;;10.20;3.17;;;;;;;22.93;67.92;99301.53;5107362;28;20020;-80
2023/06/28 04:34:24;;;;;;;9.13;2.55;;;;;;;22.94;68.87;99330.16;5110702;28;20055;-80
2023/06/28 04:36:49;;;;;;;3.28;1.98;;;;;;;22.89;69.12;99330.50;5091400;28;20482;-81
2023/06/28 04:39:15;;;;;;;4.30;2.10;;;;;;;23.02;68.31;99308.94;5094426;28;20028;-80
2023/06/28 04:41:40;;;;;;;8.63;3.90;;;;;;;23.21;67.35;99315.69;5091299;28;20040;-81
2023/06/28 04:44:09;;;;;;;4.25;2.40;;;;;;;23.18;66.12;99291.72;5090086;28;20055;-81
2023/06/28 04:46:35;;;;;;;2.55;1.67;;;;;;;23.49;65.97;99313.66;5090446;28;20028;-82
2023/06/28 04:49:00;;;;;;;2.92;1.45;;;;;;;23.37;66.52;99326.19;5094646;28;20104;-79
2023/06/28 04:51:26;;;;;;;4.43;2.72;;;;;;;23.36;66.07;99346.84;5091578;28;20494;-81
2023/06/28 04:53:51;;;;;;;3.50;2.22;;;;;;;23.67;66.41;99344.56;5090885;28;20028;-81
2023/06/28 04:56:17;;;;;;;3.13;1.75;;;;;;;23.61;65.84;99347.72;5095233;28;20715;-81
2023/06/28 04:58:43;;;;;;;4.30;2.92;;;;;;;23.62;64.59;99324.34;5106546;28;20027;-82
2023/06/28 05:01:09;;;;;;;4.35;2.70;;;;;;;23.47;65.55;99343.38;5098249;28;20096;-81
2023/06/28 05:03:35;;;;;;;3.22;1.98;;;;;;;23.38;66.13;99322.53;5098169;28;20515;-80
2023/06/28 05:06:06;;;;;;;5.60;2.85;;;;;;;23.37;65.93;99350.41;5096666;28;20359;-81
2023/06/28 05:08:32;;;;;;;5.00;2.28;;;;;;;23.51;65.55;99339.50;5109542;28;20023;-81
2023/06/28 05:10:58;;;;;;;5.00;2.80;;;;;;;23.80;64.73;99344.50;5110615;28;20122;-81
2023/06/28 05:13:24;;;;;;;4.30;2.97;;;;;;;24.15;65.11;99343.69;5105179;28;20036;-80
2023/06/28 05:15:50;;;;;;;5.97;2.08;;;;;;;24.47;64.19;99341.19;5092437;28;20035;-82
2023/06/28 05:18:15;;;;;;;3.95;2.58;;;;;;;24.79;60.63;99337.81;5090373;28;20115;-82
2023/06/28 05:20:40;;;;;;;4.38;2.75;;;;;;;24.67;61.98;99323.47;5090826;28;20039;-82
2023/06/28 05:23:18;;;;;;;24.35;3.38;;;;;;;25.07;59.85;99345.50;5106990;28;20481;-82
2023/06/28 05:25:45;;;;;;;3.65;2.22;;;;;;;25.08;59.74;99331.03;5091749;28;20500;-83
2023/06/28 05:28:12;;;;;;;5.68;2.70;;;;;;;25.18;58.85;99362.56;5093925;28;20028;-83
2023/06/28 05:30:39;;;;;;;3.65;2.50;;;;;;;25.02;58.73;99340.47;5096042;28;20044;-83
2023/06/28 05:33:04;;;;;;;8.25;3.38;;;;;;;24.89;58.45;99319.03;5104259;28;20107;-81
2023/06/28 05:35:34;;;;;;;4.55;2.17;;;;;;;25.15;60.49;99349.31;5106156;28;20485;-82
2023/06/28 05:38:01;;;;;;;3.22;1.80;;;;;;;25.24;59.07;99315.34;5104158;28;20512;-83
2023/06/28 05:40:27;;;;;;;5.72;3.00;;;;;;;25.49;59.23;99343.88;5094400;28;20039;-82
2023/06/28 05:42:53;;;;;;;5.38;1.52;;;;;;;25.68;58.23;99356.69;5096350;28;20547;-83
2023/06/28 05:45:20;;;;;;;5.97;3.03;;;;;;;25.58;58.79;99319.78;5099931;28;20071;-83
2023/06/28 05:47:46;;;;;;;5.07;2.33;;;;;;;25.83;58.70;99326.72;5110523;28;20023;-83
2023/06/28 05:50:11;;;;;;;6.53;2.38;;;;;;;25.92;56.60;99334.88;5109491;28;20045;-83
2023/06/28 05:52:37;;;;;;;4.30;2.10;;;;;;;26.37;56.42;99301.34;5101491;28;20127;-84
2023/06/28 05:55:02;;;;;;;4.78;2.78;;;;;;;26.75;55.01;99299.00;5096809;28;20039;-83
2023/06/28 05:57:28;;;;;;;3.63;2.67;;;;;;;26.91;54.85;99307.47;5085302;28;20397;-84
2023/06/28 05:59:53;;;;;;;10.23;3.05;;;;;;;27.02;54.01;99313.75;5102976;28;20023;-83
2023/06/28 06:02:19;;;;;;;6.40;2.67;;;;;;;27.47;54.51;99346.69;5101029;28;20489;-83
2023/06/28 06:04:44;;;;;;;7.28;2.90;;;;;;;27.76;53.25;99326.03;5099834;28;20100;-84
2023/06/28 06:07:10;;;;;;;2.85;2.08;;;;;;;27.68;49.67;99327.59;5078744;28;20103;-84
2023/06/28 06:09:35;;;;;;;4.47;2.85;;;;;;;28.09;51.72;99329.34;5115068;27;20027;-86
2023/06/28 06:12:00;;;;;;;5.35;2.65;;;;;;;27.77;50.10;99311.47;5111656;27;20045;-84
2023/06/28 06:14:26;;;;;;;4.60;2.72;;;;;;;27.84;50.21;99280.13;5095011;28;20481;-85
2023/06/28 06:16:54;;;;;;;4.80;2.75;;;;;;;27.96;49.10;99313.34;5101580;28;20016;-85
2023/06/28 06:19:19;;;;;;;3.60;2.40;;;;;;;28.09;49.36;99315.78;5111324;28;20036;-88
2023/06/28 06:21:45;;;;;;;4.43;3.15;;;;;;;28.10;47.61;99298.50;5074918;28;20421;-88
2023/06/28 06:24:10;;;;;;;4.22;2.45;;;;;;;28.16;48.80;99304.22;5100505;27;20027;-86
2023/06/28 06:26:36;;;;;;;5.70;2.67;;;;;;;28.61;47.99;99302.69;5102108;28;20501;-86
2023/06/28 06:29:02;;;;;;;7.95;2.53;;;;;;;28.54;47.82;99275.25;5113369;28;20027;-87
2023/06/28 06:31:28;;;;;;;4.15;2.10;;;;;;;29.27;44.27;99287.22;5112644;28;20376;-88
2023/06/28 06:34:01;;;;;;;2.65;1.73;;;;;;;29.39;45.74;99274.28;5111429;28;20037;-88
2023/06/28 06:36:29;;;;;;;4.55;2.47;;;;;;;29.17;44.83;99281.84;5102134;28;20020;-88
2023/06/28 06:38:59;;;;;;;3.58;2.22;;;;;;;28.84;44.13;99240.75;5113135;28;20028;-89
2023/06/28 06:41:25;;;;;;;5.10;2.55;;;;;;;29.01;45.26;99259.94;5103682;28;20032;-88
2023/06/28 06:43:50;;;;;;;2.83;1.85;;;;;;;29.38;43.98;99275.28;5072683;28;20140;-88
2023/06/28 06:46:20;;;;;;;4.30;2.30;;;;;;;29.51;43.93;99261.34;5093849;28;20055;-86
2023/06/28 06:48:46;;;;;;;3.53;2.35;;;;;;;29.79;43.24;99275.69;5090607;28;20028;-87
2023/06/28 06:51:11;;;;;;;2.75;2.03;;;;;;;29.66;43.78;99286.97;5090959;28;20074;-88
2023/06/28 06:53:37;;;;;;;5.55;2.88;;;;;;;29.69;45.41;99253.16;5072452;28;20116;-86
2023/06/28 06:56:04;;;;;;;3.63;2.40;;;;;;;29.42;43.94;99280.25;5090911;28;20133;-87
2023/06/28 06:58:30;;;;;;;5.10;2.78;;;;;;;29.39;43.43;99260.72;5075881;28;20026;-86
2023/06/28 07:00:55;;;;;;;5.07;2.30;;;;;;;29.65;44.17;99234.44;5099354;28;20031;-88
2023/06/28 07:03:21;;;;;;;5.38;2.92;;;;;;;29.80;44.37;99245.66;5112571;28;20092;-88
2023/06/28 07:05:46;;;;;;;7.95;2.85;;;;;;;29.72;43.81;99231.97;5095746;28;20081;-87
2023/06/28 07:08:12;;;;;;;4.70;2.90;;;;;;;29.99;41.98;99293.53;5092325;28;20028;-86
2023/06/28 07:10:38;;;;;;;5.13;3.13;;;;;;;29.60;42.72;99255.81;5092211;28;20153;-84
2023/06/28 07:13:04;;;;;;;6.75;2.90;;;;;;;29.74;41.73;99270.72;5091583;28;20030;-86
2023/06/28 07:15:29;;;;;;;2.63;1.95;;;;;;;29.91;41.24;99251.88;5099900;28;20102;-84
2023/06/28 07:17:55;;;;;;;4.18;2.72;;;;;;;29.95;41.33;99240.50;5082212;28;20030;-87
2023/06/28 07:20:21;;;;;;;3.83;2.40;;;;;;;29.87;41.45;99259.47;5105501;28;20122;-84
2023/06/28 07:22:47;;;;;;;9.70;3.40;;;;;;;30.55;41.76;99257.88;5091519;28;20032;-85
2023/06/28 07:25:12;;;;;;;3.40;2.42;;;;;;;30.86;41.22;99262.78;5096768;28;20028;-85
2023/06/28 07:27:38;;;;;;;5.70;3.75;;;;;;;30.93;40.47;99231.19;5092537;28;20023;-86
2023/06/28 07:30:06;;;;;;;4.22;2.78;;;;;;;30.98;39.94;99238.88;5111097;28;20034;-85
2023/06/28 07:32:32;;;;;;;6.60;3.15;;;;;;;30.87;40.29;99265.34;5110636;28;20723;-86
2023/06/28 07:34:57;;;;;;;4.03;2.60;;;;;;;30.77;41.72;99229.25;5077841;28;20028;-87
2023/06/28 07:37:23;;;;;;;7.78;2.60;;;;;;;31.14;42.29;99211.69;5091191;28;20101;-87
2023/06/28 07:39:49;;;;;;;6.50;2.55;;;;;;;31.47;38.93;99246.31;5091112;28;20085;-84
2023/06/28 07:42:14;;;;;;;9.27;3.45;;;;;;;31.09;41.26;99256.78;5091082;28;20031;-85
2023/06/28 07:44:40;;;;;;;3.45;2.33;;;;;;;30.75;40.16;99211.38;5091031;28;20472;-85
2023/06/28 07:47:06;;;;;;;4.63;3.28;;;;;;;31.00;39.43;99220.50;5091013;28;20028;-84
2023/06/28 07:49:31;;;;;;;3.53;2.50;;;;;;;30.99;40.13;99210.66;5093268;28;20028;-84
2023/06/28 07:51:59;;;;;;;5.00;2.65;;;;;;;31.47;38.06;99260.78;5101354;28;20429;-84
2023/06/28 07:54:25;;;;;;;4.22;3.05;;;;;;;31.80;39.23;99259.97;5111601;28;20096;-85
2023/06/28 07:56:51;;;;;;;3.58;2.83;;;;;;;31.86;39.59;99232.03;5112211;28;20508;-85
2023/06/28 07:59:19;;;;;;;5.70;2.88;;;;;;;32.08;37.13;99227.72;5111779;28;20063;-85
2023/06/28 08:01:45;;;;;;;4.65;3.10;;;;;;;32.33;37.35;99233.16;5111721;28;20035;-86
2023/06/28 08:04:11;;;;;;;4.50;2.55;;;;;;;32.40;37.25;99253.28;5111534;28;20119;-86
2023/06/28 08:06:36;;;;;;;4.68;2.72;;;;;;;32.51;36.46;99219.28;5111689;28;20093;-86
2023/06/28 08:09:02;;;;;;;6.30;3.72;;;;;;;32.37;36.09;99207.22;5111480;28;20518;-85
2023/06/28 08:11:28;;;;;;;4.57;2.70;;;;;;;32.57;36.47;99180.38;5111574;28;20032;-86
2023/06/28 08:13:53;;;;;;;3.88;2.60;;;;;;;33.13;35.50;99243.09;5105041;28;20024;-86
2023/06/28 08:16:19;;;;;;;11.85;2.88;;;;;;;33.17;37.09;99220.69;5073175;28;20043;-87
2023/06/28 08:18:44;;;;;;;2.95;2.33;;;;;;;33.09;35.22;99239.88;5090571;28;20057;-87
2023/06/28 08:21:11;;;;;;;4.90;2.97;;;;;;;33.77;34.13;99200.97;5091220;28;20100;-86
2023/06/28 08:23:36;;;;;;;5.65;3.30;;;;;;;34.25;34.91;99199.66;5090886;28;20039;-86
2023/06/28 08:26:02;;;;;;;3.78;2.80;;;;;;;34.61;35.39;99200.78;5072539;28;20416;-87
2023/06/28 08:28:28;;;;;;;5.80;2.85;;;;;;;35.08;34.68;99212.31;5072604;28;20036;-87
2023/06/28 08:30:53;;;;;;;3.67;2.28;;;;;;;34.76;33.29;99167.91;5091253;28;20031;-86
2023/06/28 08:33:19;;;;;;;7.25;3.15;;;;;;;33.69;34.99;99183.59;5090710;28;20031;-88
2023/06/28 08:35:44;;;;;;;4.60;3.03;;;;;;;33.47;35.40;99203.59;5091108;28;20031;-86
2023/06/28 08:38:11;;;;;;;4.35;3.03;;;;;;;32.85;33.68;99210.81;5091202;28;20129;-86
2023/06/28 08:40:36;;;;;;;4.22;3.17;;;;;;;33.06;34.82;99210.19;5090458;28;20402;-86
2023/06/28 08:43:03;;;;;;;3.40;2.38;;;;;;;33.37;34.20;99214.78;5090894;28;20028;-86
2023/06/28 08:45:32;;;;;;;4.43;2.22;;;;;;;33.01;33.39;99207.13;5090183;28;20062;-86
2023/06/28 08:47:58;;;;;;;8.88;2.90;;;;;;;32.78;35.84;99201.63;5090580;28;20028;-86
2023/06/28 08:50:24;;;;;;;4.30;2.83;;;;;;;33.13;36.77;99192.00;5090185;28;20036;-86
2023/06/28 08:52:50;;;;;;;3.90;2.17;;;;;;;33.78;36.43;99198.03;5090635;28;20085;-85
2023/06/28 08:55:16;;;;;;;6.88;3.28;;;;;;;33.93;33.18;99184.41;5090166;28;20038;-87
2023/06/28 08:57:43;;;;;;;5.03;3.25;;;;;;;33.73;29.90;99182.19;5090703;28;20031;-86
2023/06/28 09:00:12;;;;;;;3.90;2.50;;;;;;;34.16;31.48;99180.75;5091407;28;20032;-87
2023/06/28 09:02:42;;;;;;;4.65;2.65;;;;;;;34.56;33.03;99148.47;5107090;28;20028;-85
2023/06/28 09:05:09;;;;;;;4.32;2.95;;;;;;;34.86;32.00;99168.44;5082602;28;20031;-86
2023/06/28 09:07:39;;;;;;;3.42;2.20;;;;;;;34.52;32.52;99158.94;5095289;27;20473;-86
2023/06/28 09:10:06;;;;;;;5.07;3.33;;;;;;;33.84;32.36;99144.50;5102278;28;20031;-86
2023/06/28 09:12:32;;;;;;;4.32;1.92;;;;;;;34.01;35.08;99148.75;5122743;28;20058;-84
2023/06/28 09:14:58;;;;;;;4.93;3.08;;;;;;;34.86;34.31;99151.16;5100938;28;20069;-86
2023/06/28 09:17:23;;;;;;;10.45;3.38;;;;;;;33.82;33.14;99141.97;5105506;28;20019;-87
2023/06/28 09:19:48;;;;;;;4.20;2.33;;;;;;;34.13;35.41;99143.66;5074558;28;20036;-86
2023/06/28 09:22:15;;;;;;;3.35;2.50;;;;;;;34.04;32.55;99173.00;5094585;28;20099;-86
2023/06/28 09:24:41;;;;;;;4.57;2.88;;;;;;;34.08;35.26;99170.75;5091259;28;20067;-85
2023/06/28 09:27:07;;;;;;;4.15;2.72;;;;;;;35.06;31.19;99173.31;5091055;28;20039;-85
2023/06/28 09:29:34;;;;;;;3.97;2.88;;;;;;;35.63;28.41;99160.56;5092219;28;20036;-85
2023/06/28 09:32:02;;;;;;;4.25;2.97;;;;;;;36.06;30.14;99160.50;5091567;28;20031;-85
2023/06/28 09:34:28;;;;;;;4.70;2.78;;;;;;;35.88;32.34;99149.19;5089550;28;20156;-87
2023/06/28 09:36:56;;;;;;;6.38;3.47;;;;;;;36.34;30.23;99173.34;5093215;28;20032;-85
2023/06/28 09:39:28;;;;;;;5.07;2.72;;;;;;;36.15;27.94;99153.78;5092914;28;20027;-84
2023/06/28 09:41:54;;;;;;;5.53;2.55;;;;;;;35.07;33.01;99142.97;5098394;27;20443;-85
2023/06/28 09:44:29;;;;;;;4.38;2.50;;;;;;;34.94;30.15;99151.91;5091977;28;20032;-87
2023/06/28 09:47:03;;;;;;;5.05;2.67;;;;;;;35.38;30.85;99171.97;5101499;28;20046;-86
2023/06/28 09:49:29;;;;;;;4.40;2.40;;;;;;;34.79;29.97;99146.47;5096880;28;20042;-88
2023/06/28 09:51:57;;;;;;;2.83;1.73;;;;;;;35.10;28.94;99161.75;5090838;28;20278;-86
2023/06/28 09:54:32;;;;;;;4.70;3.25;;;;;;;34.93;29.67;99146.63;5095255;27;20051;-86
2023/06/28 09:56:59;;;;;;;3.70;2.50;;;;;;;34.97;30.78;99117.78;5078742;28;20032;-85
2023/06/28 09:59:27;;;;;;;3.78;2.67;;;;;;;34.79;29.10;99127.28;5096129;28;20171;-85
2023/06/28 10:01:57;;;;;;;3.88;2.25;;;;;;;34.70;28.61;99122.94;5072111;28;20047;-86
2023/06/28 10:04:28;;;;;;;5.60;2.17;;;;;;;34.83;28.64;99119.53;5091494;27;20024;-85
2023/06/28 10:07:02;;;;;;;4.43;2.40;;;;;;;35.17;30.30;99139.88;5082911;28;20035;-85
2023/06/28 10:09:39;;;;;;;4.55;2.55;;;;;;;34.51;28.12;99077.88;5093807;27;20044;-87
2023/06/28 10:12:20;;;;;;;3.60;2.22;;;;;;;35.08;29.56;99114.53;5097463;27;20039;-86
2023/06/28 10:15:01;;;;;;;3.90;2.83;;;;;;;35.18;29.78;99078.56;5095552;28;20024;-85
2023/06/28 10:17:34;;;;;;;7.93;7.03;;;;;;;35.74;27.78;99157.28;5097033;28;20413;-85
2023/06/28 10:20:00;;;;;;;3.92;2.67;;;;;;;35.23;28.96;99083.44;5094785;28;20464;-85
2023/06/28 10:22:27;;;;;;;3.72;2.20;;;;;;;34.71;30.24;99080.84;5099994;28;20048;-85
2023/06/28 10:24:55;;;;;;;4.05;2.45;;;;;;;35.04;29.68;99112.38;5095540;28;20035;-84
2023/06/28 10:27:22;;;;;;;5.82;2.67;;;;;;;34.89;30.25;99093.25;5096653;28;20469;-84
2023/06/28 10:29:50;;;;;;;11.88;5.75;;;;;;;35.48;30.89;99135.97;5096186;28;20042;-84
2023/06/28 10:32:16;;;;;;;8.35;3.97;;;;;;;35.17;30.08;99092.47;5098596;28;20766;-84
2023/06/28 10:34:42;;;;;;;10.63;2.80;;;;;;;35.55;28.73;99103.16;5092115;28;20024;-86
2023/06/28 10:37:08;;;;;;;3.95;2.97;;;;;;;35.34;28.08;99077.44;5077794;28;20119;-85
2023/06/28 10:39:38;;;;;;;3.55;2.50;;;;;;;35.50;28.57;99118.28;5075310;28;20130;-83
2023/06/28 10:42:05;;;;;;;4.43;2.00;;;;;;;34.76;29.13;99088.50;5095224;27;20055;-84
2023/06/28 10:44:30;;;;;;;4.32;2.67;;;;;;;34.75;29.76;99104.06;5094165;27;20143;-83
2023/06/28 10:47:16;;;;;;;8.05;2.88;;;;;;;35.06;29.21;99085.63;5097599;28;20106;-84
2023/06/28 10:49:43;;;;;;;5.22;2.85;;;;;;;35.55;28.77;99109.47;5080153;28;20541;-84
2023/06/28 10:52:13;;;;;;;3.70;2.47;;;;;;;35.20;28.75;99081.94;5100037;27;20031;-82
2023/06/28 10:54:39;;;;;;;2.72;1.88;;;;;;;34.90;29.03;99105.91;5094110;28;20024;-83
2023/06/28 10:57:10;;;;;;;4.03;2.28;;;;;;;35.15;28.98;99081.69;5091824;28;20623;-83
2023/06/28 10:59:36;;;;;;;4.57;2.55;;;;;;;35.38;29.88;99084.25;5091666;28;20024;-82
2023/06/28 11:02:02;;;;;;;3.08;2.10;;;;;;;35.29;29.92;99101.88;5101474;27;20059;-83
2023/06/28 11:04:27;;;;;;;7.60;2.33;;;;;;;34.81;28.59;99066.00;5092271;28;20028;-82
2023/06/28 11:07:16;;;;;;;8.30;3.58;;;;;;;34.79;30.49;99099.91;5092176;28;20032;-82
2023/06/28 11:10:16;;;;;;;2.97;1.95;;;;;;;35.20;29.42;99095.66;5091000;28;20110;-82
2023/06/28 11:12:46;;;;;;;3.40;2.33;;;;;;;34.86;29.51;99074.47;5089689;28;20028;-83
2023/06/28 11:15:13;;;;;;;4.22;2.38;;;;;;;35.11;29.36;99092.22;5091341;28;20107;-82
2023/06/28 11:17:39;;;;;;;3.67;2.00;;;;;;;34.80;29.65;99070.59;5091279;28;20032;-84
2023/06/28 11:20:06;;;;;;;3.55;2.35;;;;;;;34.65;29.52;99083.47;5091223;28;20508;-83
2023/06/28 11:22:52;;;;;;;4.75;3.75;;;;;;;34.17;29.88;99073.84;5091409;28;20094;-84
2023/06/28 11:25:21;;;;;;;5.72;4.28;;;;;;;34.17;30.29;99068.38;5091519;28;20028;-83
2023/06/28 11:27:47;;;;;;;3.20;2.45;;;;;;;34.36;29.48;99077.06;5090700;28;20032;-83
2023/06/28 11:30:13;;;;;;;4.32;2.78;;;;;;;34.27;30.27;99068.09;5093331;27;20448;-84
2023/06/28 11:32:40;;;;;;;4.28;2.42;;;;;;;34.64;30.59;99079.06;5089960;28;20409;-83